sensor_id;sensor_type;location;lat;lon;timestamp;temperature;humidity
20463;DHT22;10390;53.566;9.980;2023-08-20T00:00:17;30.90;1.00
20463;DHT22;10390;53.566;9.980;2023-08-20T00:02:46;30.90;1.00
20463;DHT22;10390;53.566;9.980;2023-08-20T00:05:12;30.90;1.00
20463;DHT22;10390;53.566;9.980;2023-08-20T00:07:39;30.90;1.00
20463;DHT22;10390;53.566;9.980;2023-08-20T00:10:05;30.90;1.00
20463;DHT22;10390;53.566;9.980;2023-08-20T00:12:31;30.80;1.00
20463;DHT22;10390;53.566;9.980;2023-08-20T00:14:59;30.80;1.00
20463;DHT22;10390;53.566;9.980;2023-08-20T00:17:40;30.90;1.00
20463;DHT22;10390;53.566;9.980;2023-08-20T00:20:08;30.80;1.00
20463;DHT22;10390;53.566;9.980;2023-08-20T00:22:39;30.80;1.00
20463;DHT22;10390;53.566;9.980;2023-08-20T00:25:05;30.80;1.00
20463;DHT22;10390;53.566;9.980;2023-08-20T00:27:31;30.80;1.00
20463;DHT22;10390;53.566;9.980;2023-08-20T00:29:57;30.80;1.00
20463;DHT22;10390;53.566;9.980;2023-08-20T00:32:23;30.80;1.00
20463;DHT22;10390;53.566;9.980;2023-08-20T00:34:48;30.80;1.00
20463;DHT22;10390;53.566;9.980;2023-08-20T00:37:14;30.80;1.00
20463;DHT22;10390;53.566;9.980;2023-08-20T00:39:40;30.80;1.00
20463;DHT22;10390;53.566;9.980;2023-08-20T00:42:06;30.80;1.00
20463;DHT22;10390;53.566;9.980;2023-08-20T00:44:33;30.80;1.00
20463;DHT22;10390;53.566;9.980;2023-08-20T00:47:00;30.80;1.00
20463;DHT22;10390;53.566;9.980;2023-08-20T00:49:26;30.80;1.00
20463;DHT22;10390;53.566;9.980;2023-08-20T00:51:52;30.80;1.00
20463;DHT22;10390;53.566;9.980;2023-08-20T00:54:19;30.70;1.00
20463;DHT22;10390;53.566;9.980;2023-08-20T00:56:46;30.70;1.00
20463;DHT22;10390;53.566;9.980;2023-08-20T00:59:12;30.70;1.00
20463;DHT22;10390;53.566;9.980;2023-08-20T01:01:38;30.80;1.00
20463;DHT22;10390;53.566;9.980;2023-08-20T01:04:04;30.80;1.00
20463;DHT22;10390;53.566;9.980;2023-08-20T01:06:44;30.70;1.00
20463;DHT22;10390;53.566;9.980;2023-08-20T01:11:59;30.70;1.00
20463;DHT22;10390;53.566;9.980;2023-08-20T01:14:24;30.70;1.00
20463;DHT22;10390;53.566;9.980;2023-08-20T01:16:50;30.70;1.00
20463;DHT22;10390;53.566;9.980;2023-08-20T01:19:20;30.70;1.00
20463;DHT22;10390;53.566;9.980;2023-08-20T01:24:47;30.60;1.00
20463;DHT22;10390;53.566;9.980;2023-08-20T01:30:29;30.60;1.00
20463;DHT22;10390;53.566;9.980;2023-08-20T01:32:58;30.70;1.00
20463;DHT22;10390;53.566;9.980;2023-08-20T01:35:24;30.60;1.00
20463;DHT22;10390;53.566;9.980;2023-08-20T01:37:51;30.60;1.00
20463;DHT22;10390;53.566;9.980;2023-08-20T01:40:17;30.60;1.00
20463;DHT22;10390;53.566;9.980;2023-08-20T01:42:43;30.60;1.00
20463;DHT22;10390;53.566;9.980;2023-08-20T01:45:08;30.60;1.00
20463;DHT22;10390;53.566;9.980;2023-08-20T01:47:34;30.60;1.00
20463;DHT22;10390;53.566;9.980;2023-08-20T01:50:00;30.60;1.00
20463;DHT22;10390;53.566;9.980;2023-08-20T01:52:26;30.60;1.00
20463;DHT22;10390;53.566;9.980;2023-08-20T01:54:52;30.60;1.00
20463;DHT22;10390;53.566;9.980;2023-08-20T01:57:19;30.60;1.00
20463;DHT22;10390;53.566;9.980;2023-08-20T01:59:44;30.60;1.00
20463;DHT22;10390;53.566;9.980;2023-08-20T02:02:10;30.60;1.00
20463;DHT22;10390;53.566;9.980;2023-08-20T02:04:35;30.60;1.00
20463;DHT22;10390;53.566;9.980;2023-08-20T02:07:01;30.60;1.00
20463;DHT22;10390;53.566;9.980;2023-08-20T02:09:27;30.60;1.00
20463;DHT22;10390;53.566;9.980;2023-08-20T02:11:52;30.50;1.00
20463;DHT22;10390;53.566;9.980;2023-08-20T02:14:18;30.50;1.00
20463;DHT22;10390;53.566;9.980;2023-08-20T02:16:45;30.50;1.00
20463;DHT22;10390;53.566;9.980;2023-08-20T02:19:20;30.50;1.00
20463;DHT22;10390;53.566;9.980;2023-08-20T02:21:45;30.50;1.00
20463;DHT22;10390;53.566;9.980;2023-08-20T02:24:11;30.50;1.00
20463;DHT22;10390;53.566;9.980;2023-08-20T02:26:36;30.50;1.00
20463;DHT22;10390;53.566;9.980;2023-08-20T02:29:02;30.50;1.00
20463;DHT22;10390;53.566;9.980;2023-08-20T02:31:28;30.50;1.00
20463;DHT22;10390;53.566;9.980;2023-08-20T02:33:54;30.50;1.00
20463;DHT22;10390;53.566;9.980;2023-08-20T02:36:19;30.50;1.00
20463;DHT22;10390;53.566;9.980;2023-08-20T02:38:45;30.50;1.00
20463;DHT22;10390;53.566;9.980;2023-08-20T02:41:11;30.50;1.00
20463;DHT22;10390;53.566;9.980;2023-08-20T02:43:37;30.50;1.00
20463;DHT22;10390;53.566;9.980;2023-08-20T02:46:03;30.50;1.00
20463;DHT22;10390;53.566;9.980;2023-08-20T02:48:29;30.50;1.00
20463;DHT22;10390;53.566;9.980;2023-08-20T02:50:55;30.50;1.00
20463;DHT22;10390;53.566;9.980;2023-08-20T02:53:21;30.50;1.00
20463;DHT22;10390;53.566;9.980;2023-08-20T02:55:47;30.40;1.00
20463;DHT22;10390;53.566;9.980;2023-08-20T02:58:12;30.50;1.00
20463;DHT22;10390;53.566;9.980;2023-08-20T03:00:41;30.50;1.00
20463;DHT22;10390;53.566;9.980;2023-08-20T03:03:11;30.40;1.00
20463;DHT22;10390;53.566;9.980;2023-08-20T03:05:36;30.40;1.00
20463;DHT22;10390;53.566;9.980;2023-08-20T03:08:02;30.40;1.00
20463;DHT22;10390;53.566;9.980;2023-08-20T03:10:31;30.40;1.00
20463;DHT22;10390;53.566;9.980;2023-08-20T03:13:00;30.40;1.00
20463;DHT22;10390;53.566;9.980;2023-08-20T03:15:27;30.40;1.00
20463;DHT22;10390;53.566;9.980;2023-08-20T03:17:53;30.40;1.00
20463;DHT22;10390;53.566;9.980;2023-08-20T03:20:18;30.40;1.00
20463;DHT22;10390;53.566;9.980;2023-08-20T03:22:44;30.40;1.00
20463;DHT22;10390;53.566;9.980;2023-08-20T03:25:09;30.40;1.00
20463;DHT22;10390;53.566;9.980;2023-08-20T03:27:35;30.40;1.00
20463;DHT22;10390;53.566;9.980;2023-08-20T03:30:01;30.40;1.00
20463;DHT22;10390;53.566;9.980;2023-08-20T03:32:27;30.40;1.00
20463;DHT22;10390;53.566;9.980;2023-08-20T03:34:52;30.40;1.00
20463;DHT22;10390;53.566;9.980;2023-08-20T03:37:19;30.40;1.00
20463;DHT22;10390;53.566;9.980;2023-08-20T03:39:45;30.40;1.00
20463;DHT22;10390;53.566;9.980;2023-08-20T03:42:10;30.40;1.00
20463;DHT22;10390;53.566;9.980;2023-08-20T03:44:36;30.30;1.00
20463;DHT22;10390;53.566;9.980;2023-08-20T03:47:01;30.30;1.00
20463;DHT22;10390;53.566;9.980;2023-08-20T03:49:27;30.40;1.00
20463;DHT22;10390;53.566;9.980;2023-08-20T03:51:53;30.30;1.00
20463;DHT22;10390;53.566;9.980;2023-08-20T03:54:19;30.30;1.00
20463;DHT22;10390;53.566;9.980;2023-08-20T03:56:45;30.30;1.00
20463;DHT22;10390;53.566;9.980;2023-08-20T03:59:11;30.30;1.00
20463;DHT22;10390;53.566;9.980;2023-08-20T04:01:37;30.30;1.00
20463;DHT22;10390;53.566;9.980;2023-08-20T04:04:03;30.30;1.00
20463;DHT22;10390;53.566;9.980;2023-08-20T04:06:29;30.30;1.00
20463;DHT22;10390;53.566;9.980;2023-08-20T04:08:55;30.30;1.00
20463;DHT22;10390;53.566;9.980;2023-08-20T04:11:20;30.30;1.00
20463;DHT22;10390;53.566;9.980;2023-08-20T04:13:46;30.30;1.00
20463;DHT22;10390;53.566;9.980;2023-08-20T04:16:12;30.30;1.00
20463;DHT22;10390;53.566;9.980;2023-08-20T04:18:39;30.30;1.00
20463;DHT22;10390;53.566;9.980;2023-08-20T04:21:05;30.30;1.00
20463;DHT22;10390;53.566;9.980;2023-08-20T04:23:30;30.30;1.00
20463;DHT22;10390;53.566;9.980;2023-08-20T04:25:56;30.30;1.00
20463;DHT22;10390;53.566;9.980;2023-08-20T04:28:21;30.20;1.00
20463;DHT22;10390;53.566;9.980;2023-08-20T04:30:47;30.20;1.00
20463;DHT22;10390;53.566;9.980;2023-08-20T04:33:19;30.30;1.00
20463;DHT22;10390;53.566;9.980;2023-08-20T04:35:45;30.20;1.00
20463;DHT22;10390;53.566;9.980;2023-08-20T04:38:11;30.20;1.00
20463;DHT22;10390;53.566;9.980;2023-08-20T04:40:36;30.20;1.00
20463;DHT22;10390;53.566;9.980;2023-08-20T04:43:02;30.20;1.00
20463;DHT22;10390;53.566;9.980;2023-08-20T04:45:27;30.20;1.00
20463;DHT22;10390;53.566;9.980;2023-08-20T04:47:53;30.20;1.00
20463;DHT22;10390;53.566;9.980;2023-08-20T04:50:18;30.20;1.00
20463;DHT22;10390;53.566;9.980;2023-08-20T04:52:44;30.20;1.00
20463;DHT22;10390;53.566;9.980;2023-08-20T04:55:09;30.20;1.00
20463;DHT22;10390;53.566;9.980;2023-08-20T04:57:35;30.20;1.00
20463;DHT22;10390;53.566;9.980;2023-08-20T05:00:01;30.10;1.00
20463;DHT22;10390;53.566;9.980;2023-08-20T05:02:26;30.20;1.00
20463;DHT22;10390;53.566;9.980;2023-08-20T05:04:52;30.20;1.00
20463;DHT22;10390;53.566;9.980;2023-08-20T05:07:18;30.20;1.00
20463;DHT22;10390;53.566;9.980;2023-08-20T05:09:43;30.10;1.00
20463;DHT22;10390;53.566;9.980;2023-08-20T05:12:09;30.10;1.00
20463;DHT22;10390;53.566;9.980;2023-08-20T05:14:35;30.10;1.00
20463;DHT22;10390;53.566;9.980;2023-08-20T05:17:00;30.10;1.00
20463;DHT22;10390;53.566;9.980;2023-08-20T05:19:26;30.10;1.00
20463;DHT22;10390;53.566;9.980;2023-08-20T05:21:52;30.10;1.00
20463;DHT22;10390;53.566;9.980;2023-08-20T05:24:21;30.10;1.00
20463;DHT22;10390;53.566;9.980;2023-08-20T05:26:49;30.10;1.00
20463;DHT22;10390;53.566;9.980;2023-08-20T05:29:15;30.10;1.00
20463;DHT22;10390;53.566;9.980;2023-08-20T05:31:40;30.10;1.00
20463;DHT22;10390;53.566;9.980;2023-08-20T05:34:06;30.10;1.00
20463;DHT22;10390;53.566;9.980;2023-08-20T05:36:31;30.10;1.00
20463;DHT22;10390;53.566;9.980;2023-08-20T05:38:57;30.20;1.00
20463;DHT22;10390;53.566;9.980;2023-08-20T05:41:23;30.10;1.00
20463;DHT22;10390;53.566;9.980;2023-08-20T05:43:48;30.10;1.00
20463;DHT22;10390;53.566;9.980;2023-08-20T05:46:14;30.20;1.00
20463;DHT22;10390;53.566;9.980;2023-08-20T05:48:39;30.20;1.00
20463;DHT22;10390;53.566;9.980;2023-08-20T05:51:05;30.20;1.00
20463;DHT22;10390;53.566;9.980;2023-08-20T05:53:30;30.20;1.00
20463;DHT22;10390;53.566;9.980;2023-08-20T05:55:56;30.20;1.00
20463;DHT22;10390;53.566;9.980;2023-08-20T05:58:21;30.20;1.00
20463;DHT22;10390;53.566;9.980;2023-08-20T06:00:47;30.20;1.00
20463;DHT22;10390;53.566;9.980;2023-08-20T06:03:12;30.20;1.00
20463;DHT22;10390;53.566;9.980;2023-08-20T06:05:38;30.20;1.00
20463;DHT22;10390;53.566;9.980;2023-08-20T06:08:04;30.20;1.00
20463;DHT22;10390;53.566;9.980;2023-08-20T06:10:30;30.20;1.00
20463;DHT22;10390;53.566;9.980;2023-08-20T06:12:56;30.20;1.00
20463;DHT22;10390;53.566;9.980;2023-08-20T06:15:22;30.20;1.00
20463;DHT22;10390;53.566;9.980;2023-08-20T06:17:48;30.20;1.00
20463;DHT22;10390;53.566;9.980;2023-08-20T06:20:13;30.30;1.00
20463;DHT22;10390;53.566;9.980;2023-08-20T06:22:39;30.30;1.00
20463;DHT22;10390;53.566;9.980;2023-08-20T06:25:05;30.30;1.00
20463;DHT22;10390;53.566;9.980;2023-08-20T06:27:31;30.30;1.00
20463;DHT22;10390;53.566;9.980;2023-08-20T06:29:56;30.30;1.00
20463;DHT22;10390;53.566;9.980;2023-08-20T06:32:26;30.40;1.00
20463;DHT22;10390;53.566;9.980;2023-08-20T06:34:51;30.40;1.00
20463;DHT22;10390;53.566;9.980;2023-08-20T06:37:17;30.40;1.00
20463;DHT22;10390;53.566;9.980;2023-08-20T06:39:42;30.50;1.00
20463;DHT22;10390;53.566;9.980;2023-08-20T06:42:08;30.50;1.00
20463;DHT22;10390;53.566;9.980;2023-08-20T06:44:33;30.50;1.00
20463;DHT22;10390;53.566;9.980;2023-08-20T06:47:00;30.60;1.00
20463;DHT22;10390;53.566;9.980;2023-08-20T06:49:26;30.60;1.00
20463;DHT22;10390;53.566;9.980;2023-08-20T06:51:51;30.60;1.00
20463;DHT22;10390;53.566;9.980;2023-08-20T06:54:17;30.60;1.00
20463;DHT22;10390;53.566;9.980;2023-08-20T06:56:42;30.70;1.00
20463;DHT22;10390;53.566;9.980;2023-08-20T06:59:08;30.70;1.00
20463;DHT22;10390;53.566;9.980;2023-08-20T07:01:33;30.80;1.00
20463;DHT22;10390;53.566;9.980;2023-08-20T07:03:59;30.80;1.00
20463;DHT22;10390;53.566;9.980;2023-08-20T07:06:25;30.80;1.00
20463;DHT22;10390;53.566;9.980;2023-08-20T07:08:50;30.80;1.00
20463;DHT22;10390;53.566;9.980;2023-08-20T07:11:16;30.90;1.00
20463;DHT22;10390;53.566;9.980;2023-08-20T07:13:42;30.80;1.00
20463;DHT22;10390;53.566;9.980;2023-08-20T07:16:07;30.90;1.00
20463;DHT22;10390;53.566;9.980;2023-08-20T07:18:33;30.90;1.00
20463;DHT22;10390;53.566;9.980;2023-08-20T07:20:58;30.90;1.00
20463;DHT22;10390;53.566;9.980;2023-08-20T07:23:24;30.90;1.00
20463;DHT22;10390;53.566;9.980;2023-08-20T07:25:50;31.00;1.00
20463;DHT22;10390;53.566;9.980;2023-08-20T07:28:17;31.00;1.00
20463;DHT22;10390;53.566;9.980;2023-08-20T07:31:03;31.10;1.00
20463;DHT22;10390;53.566;9.980;2023-08-20T07:33:28;31.10;1.00
20463;DHT22;10390;53.566;9.980;2023-08-20T07:35:54;31.10;1.00
20463;DHT22;10390;53.566;9.980;2023-08-20T07:38:19;31.10;1.00
20463;DHT22;10390;53.566;9.980;2023-08-20T07:40:45;31.10;1.00
20463;DHT22;10390;53.566;9.980;2023-08-20T07:43:10;31.20;1.00
20463;DHT22;10390;53.566;9.980;2023-08-20T07:45:36;31.20;1.00
20463;DHT22;10390;53.566;9.980;2023-08-20T07:48:02;31.20;1.00
20463;DHT22;10390;53.566;9.980;2023-08-20T07:50:28;31.20;1.00
20463;DHT22;10390;53.566;9.980;2023-08-20T07:52:54;31.20;1.00
20463;DHT22;10390;53.566;9.980;2023-08-20T07:55:19;31.30;1.00
20463;DHT22;10390;53.566;9.980;2023-08-20T07:57:45;31.30;1.00
20463;DHT22;10390;53.566;9.980;2023-08-20T08:00:11;31.30;1.00
20463;DHT22;10390;53.566;9.980;2023-08-20T08:02:37;31.40;1.00
20463;DHT22;10390;53.566;9.980;2023-08-20T08:05:02;31.40;1.00
20463;DHT22;10390;53.566;9.980;2023-08-20T08:07:28;31.40;1.00
20463;DHT22;10390;53.566;9.980;2023-08-20T08:09:53;31.40;1.00
20463;DHT22;10390;53.566;9.980;2023-08-20T08:12:19;31.40;1.00
20463;DHT22;10390;53.566;9.980;2023-08-20T08:14:45;31.40;1.00
20463;DHT22;10390;53.566;9.980;2023-08-20T08:17:10;31.50;1.00
20463;DHT22;10390;53.566;9.980;2023-08-20T08:19:36;31.50;1.00
20463;DHT22;10390;53.566;9.980;2023-08-20T08:22:01;31.50;1.00
20463;DHT22;10390;53.566;9.980;2023-08-20T08:24:28;31.50;1.00
20463;DHT22;10390;53.566;9.980;2023-08-20T08:26:53;31.50;1.00
20463;DHT22;10390;53.566;9.980;2023-08-20T08:29:19;31.60;1.00
20463;DHT22;10390;53.566;9.980;2023-08-20T08:31:44;31.60;1.00
20463;DHT22;10390;53.566;9.980;2023-08-20T08:34:10;31.60;1.00
20463;DHT22;10390;53.566;9.980;2023-08-20T08:36:36;31.60;1.00
20463;DHT22;10390;53.566;9.980;2023-08-20T08:39:02;31.70;1.00
20463;DHT22;10390;53.566;9.980;2023-08-20T08:41:28;31.70;1.00
20463;DHT22;10390;53.566;9.980;2023-08-20T08:43:55;31.70;1.00
20463;DHT22;10390;53.566;9.980;2023-08-20T08:46:23;31.70;1.00
20463;DHT22;10390;53.566;9.980;2023-08-20T08:48:50;31.70;1.00
20463;DHT22;10390;53.566;9.980;2023-08-20T08:51:16;31.70;1.00
20463;DHT22;10390;53.566;9.980;2023-08-20T08:53:43;31.70;1.00
20463;DHT22;10390;53.566;9.980;2023-08-20T08:56:11;31.80;1.00
20463;DHT22;10390;53.566;9.980;2023-08-20T08:58:37;31.80;1.00
20463;DHT22;10390;53.566;9.980;2023-08-20T09:01:02;31.80;1.00
20463;DHT22;10390;53.566;9.980;2023-08-20T09:03:28;31.80;1.00
20463;DHT22;10390;53.566;9.980;2023-08-20T09:05:56;31.90;1.00
20463;DHT22;10390;53.566;9.980;2023-08-20T09:08:32;31.90;1.00
20463;DHT22;10390;53.566;9.980;2023-08-20T09:10:59;31.90;1.00
20463;DHT22;10390;53.566;9.980;2023-08-20T09:16:06;31.90;1.00
20463;DHT22;10390;53.566;9.980;2023-08-20T09:18:44;31.90;1.00
20463;DHT22;10390;53.566;9.980;2023-08-20T09:21:11;31.90;1.00
20463;DHT22;10390;53.566;9.980;2023-08-20T09:23:37;32.00;1.00
20463;DHT22;10390;53.566;9.980;2023-08-20T09:26:05;32.00;1.00
20463;DHT22;10390;53.566;9.980;2023-08-20T09:28:44;32.00;1.00
20463;DHT22;10390;53.566;9.980;2023-08-20T09:31:11;32.00;1.00
20463;DHT22;10390;53.566;9.980;2023-08-20T09:33:37;32.00;1.00
20463;DHT22;10390;53.566;9.980;2023-08-20T09:36:07;32.00;1.00
20463;DHT22;10390;53.566;9.980;2023-08-20T09:38:36;32.00;1.00
20463;DHT22;10390;53.566;9.980;2023-08-20T09:41:05;32.00;1.00
20463;DHT22;10390;53.566;9.980;2023-08-20T09:43:38;32.00;1.00
20463;DHT22;10390;53.566;9.980;2023-08-20T09:46:05;32.00;1.00
20463;DHT22;10390;53.566;9.980;2023-08-20T09:48:34;32.00;1.00
20463;DHT22;10390;53.566;9.980;2023-08-20T09:51:04;32.00;1.00
20463;DHT22;10390;53.566;9.980;2023-08-20T09:53:37;32.00;1.00
20463;DHT22;10390;53.566;9.980;2023-08-20T09:56:10;32.00;1.00
20463;DHT22;10390;53.566;9.980;2023-08-20T09:58:40;32.00;1.00
20463;DHT22;10390;53.566;9.980;2023-08-20T10:01:07;32.00;1.00
20463;DHT22;10390;53.566;9.980;2023-08-20T10:03:33;32.00;1.00
20463;DHT22;10390;53.566;9.980;2023-08-20T10:06:00;32.00;1.00
20463;DHT22;10390;53.566;9.980;2023-08-20T10:08:26;32.00;1.00
20463;DHT22;10390;53.566;9.980;2023-08-20T10:10:52;32.00;1.00
20463;DHT22;10390;53.566;9.980;2023-08-20T10:13:18;32.00;1.00
20463;DHT22;10390;53.566;9.980;2023-08-20T10:15:44;32.00;1.00
20463;DHT22;10390;53.566;9.980;2023-08-20T10:18:11;32.00;1.00
20463;DHT22;10390;53.566;9.980;2023-08-20T10:20:38;32.00;1.00
20463;DHT22;10390;53.566;9.980;2023-08-20T10:23:05;32.00;1.00
20463;DHT22;10390;53.566;9.980;2023-08-20T10:25:30;32.10;1.00
20463;DHT22;10390;53.566;9.980;2023-08-20T10:28:25;32.00;1.00
20463;DHT22;10390;53.566;9.980;2023-08-20T10:31:11;32.00;1.00
20463;DHT22;10390;53.566;9.980;2023-08-20T10:33:47;32.00;1.00
20463;DHT22;10390;53.566;9.980;2023-08-20T10:36:24;32.00;1.00
20463;DHT22;10390;53.566;9.980;2023-08-20T10:38:56;32.00;1.00
20463;DHT22;10390;53.566;9.980;2023-08-20T10:41:29;32.00;1.00
20463;DHT22;10390;53.566;9.980;2023-08-20T10:43:59;32.00;1.00
20463;DHT22;10390;53.566;9.980;2023-08-20T10:46:26;32.00;1.00
20463;DHT22;10390;53.566;9.980;2023-08-20T10:48:57;32.00;1.00
20463;DHT22;10390;53.566;9.980;2023-08-20T10:56:46;32.00;1.00
20463;DHT22;10390;53.566;9.980;2023-08-20T10:59:15;32.00;1.00
20463;DHT22;10390;53.566;9.980;2023-08-20T11:01:46;32.00;1.00
20463;DHT22;10390;53.566;9.980;2023-08-20T11:04:14;32.00;1.00
20463;DHT22;10390;53.566;9.980;2023-08-20T11:06:41;32.00;1.00
20463;DHT22;10390;53.566;9.980;2023-08-20T11:09:06;32.00;1.00
20463;DHT22;10390;53.566;9.980;2023-08-20T11:11:32;32.00;1.00
20463;DHT22;10390;53.566;9.980;2023-08-20T11:14:05;32.00;1.00
20463;DHT22;10390;53.566;9.980;2023-08-20T11:16:32;32.00;1.00
20463;DHT22;10390;53.566;9.980;2023-08-20T11:18:57;32.00;1.00
20463;DHT22;10390;53.566;9.980;2023-08-20T11:21:23;32.00;1.00
20463;DHT22;10390;53.566;9.980;2023-08-20T11:23:49;32.00;1.00
20463;DHT22;10390;53.566;9.980;2023-08-20T11:26:14;32.00;1.00
20463;DHT22;10390;53.566;9.980;2023-08-20T11:28:45;32.00;1.00
20463;DHT22;10390;53.566;9.980;2023-08-20T11:31:12;32.00;1.00
20463;DHT22;10390;53.566;9.980;2023-08-20T11:33:37;32.00;1.00
20463;DHT22;10390;53.566;9.980;2023-08-20T11:38:59;32.00;1.00
20463;DHT22;10390;53.566;9.980;2023-08-20T11:41:25;32.00;1.00
20463;DHT22;10390;53.566;9.980;2023-08-20T11:43:52;31.90;1.00
20463;DHT22;10390;53.566;9.980;2023-08-20T11:46:20;32.00;1.00
20463;DHT22;10390;53.566;9.980;2023-08-20T11:49:06;32.00;1.00
20463;DHT22;10390;53.566;9.980;2023-08-20T11:51:39;32.00;1.00
20463;DHT22;10390;53.566;9.980;2023-08-20T11:54:10;32.00;1.00
20463;DHT22;10390;53.566;9.980;2023-08-20T11:56:36;32.00;1.00
20463;DHT22;10390;53.566;9.980;2023-08-20T11:59:03;32.00;1.00
20463;DHT22;10390;53.566;9.980;2023-08-20T12:01:32;32.00;1.00
20463;DHT22;10390;53.566;9.980;2023-08-20T12:04:05;32.00;1.00
20463;DHT22;10390;53.566;9.980;2023-08-20T12:06:32;32.00;1.00
20463;DHT22;10390;53.566;9.980;2023-08-20T12:08:59;31.90;1.00
20463;DHT22;10390;53.566;9.980;2023-08-20T12:11:26;32.00;1.00
20463;DHT22;10390;53.566;9.980;2023-08-20T12:13:52;32.00;1.00
20463;DHT22;10390;53.566;9.980;2023-08-20T12:16:18;32.00;1.00
20463;DHT22;10390;53.566;9.980;2023-08-20T12:18:46;32.00;1.00
20463;DHT22;10390;53.566;9.980;2023-08-20T12:21:11;32.00;1.00
20463;DHT22;10390;53.566;9.980;2023-08-20T12:23:37;32.00;1.00
20463;DHT22;10390;53.566;9.980;2023-08-20T12:26:03;32.00;1.00
20463;DHT22;10390;53.566;9.980;2023-08-20T12:28:29;32.00;1.00
20463;DHT22;10390;53.566;9.980;2023-08-20T12:30:54;32.00;1.00
20463;DHT22;10390;53.566;9.980;2023-08-20T12:33:20;32.00;1.00
20463;DHT22;10390;53.566;9.980;2023-08-20T12:35:46;31.90;1.00
20463;DHT22;10390;53.566;9.980;2023-08-20T12:38:12;32.00;1.00
20463;DHT22;10390;53.566;9.980;2023-08-20T12:40:38;32.00;1.00
20463;DHT22;10390;53.566;9.980;2023-08-20T12:43:03;32.00;1.00
20463;DHT22;10390;53.566;9.980;2023-08-20T12:45:29;32.00;1.00
20463;DHT22;10390;53.566;9.980;2023-08-20T12:47:55;32.00;1.00
20463;DHT22;10390;53.566;9.980;2023-08-20T12:50:21;32.00;1.00
20463;DHT22;10390;53.566;9.980;2023-08-20T12:52:46;32.00;1.00
20463;DHT22;10390;53.566;9.980;2023-08-20T12:55:14;32.00;1.00
20463;DHT22;10390;53.566;9.980;2023-08-20T12:57:58;32.00;1.00
20463;DHT22;10390;53.566;9.980;2023-08-20T13:00:25;32.00;1.00
20463;DHT22;10390;53.566;9.980;2023-08-20T13:02:51;32.00;1.00
20463;DHT22;10390;53.566;9.980;2023-08-20T13:05:18;32.00;1.00
20463;DHT22;10390;53.566;9.980;2023-08-20T13:07:44;32.00;1.00
20463;DHT22;10390;53.566;9.980;2023-08-20T13:10:10;32.00;1.00
20463;DHT22;10390;53.566;9.980;2023-08-20T13:12:36;32.00;1.00
20463;DHT22;10390;53.566;9.980;2023-08-20T13:15:02;31.90;1.00
20463;DHT22;10390;53.566;9.980;2023-08-20T13:17:29;32.00;1.00
20463;DHT22;10390;53.566;9.980;2023-08-20T13:19:55;31.90;1.00
20463;DHT22;10390;53.566;9.980;2023-08-20T13:22:21;31.90;1.00
20463;DHT22;10390;53.566;9.980;2023-08-20T13:24:47;31.90;1.00
20463;DHT22;10390;53.566;9.980;2023-08-20T13:27:13;31.90;1.00
20463;DHT22;10390;53.566;9.980;2023-08-20T13:29:40;31.90;1.00
20463;DHT22;10390;53.566;9.980;2023-08-20T13:32:06;31.90;1.00
20463;DHT22;10390;53.566;9.980;2023-08-20T13:34:32;31.90;1.00
20463;DHT22;10390;53.566;9.980;2023-08-20T13:36:57;31.90;1.00
20463;DHT22;10390;53.566;9.980;2023-08-20T13:39:23;31.90;1.00
20463;DHT22;10390;53.566;9.980;2023-08-20T13:41:49;31.90;1.00
20463;DHT22;10390;53.566;9.980;2023-08-20T13:44:15;31.90;1.00
20463;DHT22;10390;53.566;9.980;2023-08-20T13:46:41;31.90;1.00
20463;DHT22;10390;53.566;9.980;2023-08-20T13:49:06;31.90;1.00
20463;DHT22;10390;53.566;9.980;2023-08-20T13:51:32;31.90;1.00
20463;DHT22;10390;53.566;9.980;2023-08-20T13:53:58;31.90;1.00
20463;DHT22;10390;53.566;9.980;2023-08-20T13:56:23;31.90;1.00
20463;DHT22;10390;53.566;9.980;2023-08-20T13:58:51;31.90;1.00
20463;DHT22;10390;53.566;9.980;2023-08-20T14:01:16;31.90;1.00
20463;DHT22;10390;53.566;9.980;2023-08-20T14:03:42;31.90;1.00
20463;DHT22;10390;53.566;9.980;2023-08-20T14:06:08;31.90;1.00
20463;DHT22;10390;53.566;9.980;2023-08-20T14:08:33;31.90;1.00
20463;DHT22;10390;53.566;9.980;2023-08-20T14:10:59;31.90;1.00
20463;DHT22;10390;53.566;9.980;2023-08-20T14:13:24;31.90;1.00
20463;DHT22;10390;53.566;9.980;2023-08-20T14:15:50;31.90;1.00
20463;DHT22;10390;53.566;9.980;2023-08-20T14:18:15;31.90;1.00
20463;DHT22;10390;53.566;9.980;2023-08-20T14:20:41;31.80;1.00
20463;DHT22;10390;53.566;9.980;2023-08-20T14:23:07;31.80;1.00
20463;DHT22;10390;53.566;9.980;2023-08-20T14:25:32;31.80;1.00
20463;DHT22;10390;53.566;9.980;2023-08-20T14:27:58;31.80;1.00
20463;DHT22;10390;53.566;9.980;2023-08-20T14:30:24;31.80;1.00
20463;DHT22;10390;53.566;9.980;2023-08-20T14:32:49;31.80;1.00
20463;DHT22;10390;53.566;9.980;2023-08-20T14:35:15;31.80;1.00
20463;DHT22;10390;53.566;9.980;2023-08-20T14:37:40;31.80;1.00
20463;DHT22;10390;53.566;9.980;2023-08-20T14:40:06;31.80;1.00
20463;DHT22;10390;53.566;9.980;2023-08-20T14:42:33;31.80;1.00
20463;DHT22;10390;53.566;9.980;2023-08-20T14:44:58;31.80;1.00
20463;DHT22;10390;53.566;9.980;2023-08-20T14:47:24;31.80;1.00
20463;DHT22;10390;53.566;9.980;2023-08-20T14:49:50;31.80;1.00
20463;DHT22;10390;53.566;9.980;2023-08-20T14:52:15;31.80;1.00
20463;DHT22;10390;53.566;9.980;2023-08-20T14:54:41;31.80;1.00
20463;DHT22;10390;53.566;9.980;2023-08-20T14:57:07;31.80;1.00
20463;DHT22;10390;53.566;9.980;2023-08-20T14:59:33;31.80;1.00
20463;DHT22;10390;53.566;9.980;2023-08-20T15:01:59;31.80;1.00
20463;DHT22;10390;53.566;9.980;2023-08-20T15:04:25;31.80;1.00
20463;DHT22;10390;53.566;9.980;2023-08-20T15:06:51;31.80;1.00
20463;DHT22;10390;53.566;9.980;2023-08-20T15:09:16;31.80;1.00
20463;DHT22;10390;53.566;9.980;2023-08-20T15:11:42;31.80;1.00
20463;DHT22;10390;53.566;9.980;2023-08-20T15:14:08;31.70;1.00
20463;DHT22;10390;53.566;9.980;2023-08-20T15:16:34;31.80;1.00
20463;DHT22;10390;53.566;9.980;2023-08-20T15:18:59;31.80;1.00
20463;DHT22;10390;53.566;9.980;2023-08-20T15:21:26;31.80;1.00
20463;DHT22;10390;53.566;9.980;2023-08-20T15:23:52;31.80;1.00
20463;DHT22;10390;53.566;9.980;2023-08-20T15:26:17;31.80;1.00
20463;DHT22;10390;53.566;9.980;2023-08-20T15:28:43;31.80;1.00
20463;DHT22;10390;53.566;9.980;2023-08-20T15:31:08;31.70;1.00
20463;DHT22;10390;53.566;9.980;2023-08-20T15:33:34;31.70;1.00
20463;DHT22;10390;53.566;9.980;2023-08-20T15:36:00;31.70;1.00
20463;DHT22;10390;53.566;9.980;2023-08-20T15:38:26;31.70;1.00
20463;DHT22;10390;53.566;9.980;2023-08-20T15:40:54;31.70;1.00
20463;DHT22;10390;53.566;9.980;2023-08-20T15:43:19;31.70;1.00
20463;DHT22;10390;53.566;9.980;2023-08-20T15:45:47;31.70;1.00
20463;DHT22;10390;53.566;9.980;2023-08-20T15:48:12;31.80;1.00
20463;DHT22;10390;53.566;9.980;2023-08-20T15:50:38;31.70;1.00
20463;DHT22;10390;53.566;9.980;2023-08-20T15:53:03;31.70;1.00
20463;DHT22;10390;53.566;9.980;2023-08-20T15:55:29;31.70;1.00
20463;DHT22;10390;53.566;9.980;2023-08-20T15:57:55;31.70;1.00
20463;DHT22;10390;53.566;9.980;2023-08-20T16:00:20;31.70;1.00